createdAt,value
2022-10-01T04:30:39.158Z,11.18
2022-10-01T04:33:07.035Z,10.68
2022-10-01T04:35:34.044Z,10.20
2022-10-01T04:38:10.955Z,10.30
2022-10-01T04:40:38.100Z,10.20
2022-10-01T04:43:08.333Z,10.43
2022-10-01T04:45:35.488Z,9.55
2022-10-01T04:48:02.732Z,9.15
2022-10-01T04:53:00.385Z,9.02
2022-10-01T04:55:27.190Z,8.43
2022-10-01T04:57:53.906Z,8.73
2022-10-01T05:00:24.334Z,8.93
2022-10-01T05:02:51.483Z,9.18
2022-10-01T05:05:20.628Z,10.18
2022-10-01T05:07:47.549Z,10.25
2022-10-01T05:10:17.685Z,10.45
2022-10-01T05:12:46.230Z,9.57
2022-10-01T05:15:13.823Z,9.60
2022-10-01T05:17:40.478Z,10.57
2022-10-01T05:20:08.384Z,11.57
2022-10-01T05:22:35.083Z,10.13
2022-10-01T05:25:02.204Z,9.73
2022-10-01T05:27:30.955Z,9.25
2022-10-01T05:29:57.618Z,9.07
2022-10-01T05:32:24.514Z,9.20
2022-10-01T05:34:53.555Z,10.25
2022-10-01T05:37:20.535Z,9.43
2022-10-01T05:39:47.417Z,9.45
2022-10-01T05:42:14.186Z,9.32
2022-10-01T05:44:46.101Z,9.10
2022-10-01T05:47:14.051Z,8.98
2022-10-01T05:49:42.874Z,8.93
2022-10-01T05:52:10.917Z,9.13
2022-10-01T05:54:38.297Z,8.70
2022-10-01T05:57:05.570Z,8.02
2022-10-01T05:59:32.326Z,8.95
2022-10-01T06:01:59.235Z,8.40
2022-10-01T06:04:26.024Z,8.52
2022-10-01T06:06:56.341Z,8.07
2022-10-01T06:09:23.071Z,8.35
2022-10-01T06:11:49.791Z,7.88
2022-10-01T06:14:16.842Z,7.70
2022-10-01T06:16:43.590Z,7.97
2022-10-01T06:19:10.543Z,7.65
2022-10-01T06:21:37.644Z,7.93
2022-10-01T06:24:05.215Z,7.95
2022-10-01T06:26:31.961Z,8.77
2022-10-01T06:28:58.608Z,8.48
2022-10-01T06:31:25.387Z,9.07
2022-10-01T06:33:52.224Z,8.65
2022-10-01T06:36:18.859Z,8.27
2022-10-01T06:38:49.222Z,8.68
2022-10-01T06:41:16.168Z,8.57
2022-10-01T06:43:42.894Z,8.57
2022-10-01T06:46:10.548Z,8.00
2022-10-01T06:48:37.293Z,8.02
2022-10-01T06:51:04.670Z,7.63
2022-10-01T06:53:32.144Z,8.10
2022-10-01T06:56:04.831Z,7.72
2022-10-01T06:58:31.614Z,7.93
2022-10-01T07:01:01.352Z,7.70
2022-10-01T07:03:28.683Z,7.07
2022-10-01T07:06:02.266Z,7.97
2022-10-01T07:08:29.084Z,8.82
2022-10-01T07:11:02.925Z,8.30
2022-10-01T07:13:30.185Z,6.60
2022-10-01T07:15:56.976Z,6.78
2022-10-01T07:18:23.708Z,6.25
2022-10-01T07:20:50.483Z,7.32
2022-10-01T07:23:17.423Z,5.88
2022-10-01T07:25:44.923Z,6.10
2022-10-01T07:28:18.464Z,5.60
2022-10-01T07:30:57.295Z,5.47
2022-10-01T07:33:23.990Z,5.65
2022-10-01T07:35:50.638Z,5.65
2022-10-01T07:38:17.309Z,6.03
2022-10-01T07:40:44.001Z,6.07
2022-10-01T07:43:10.740Z,6.00
2022-10-01T07:45:37.518Z,5.28
2022-10-01T07:48:04.304Z,4.85
2022-10-01T07:50:31.045Z,5.53
2022-10-01T07:52:58.994Z,5.22
2022-10-01T07:55:28.498Z,5.40
2022-10-01T07:57:57.145Z,5.05
2022-10-01T08:00:25.940Z,5.13
2022-10-01T08:02:55.877Z,5.38
2022-10-01T08:05:27.489Z,4.70
2022-10-01T08:07:58.714Z,4.80
2022-10-01T08:10:25.815Z,4.50
2022-10-01T08:12:52.869Z,4.80
2022-10-01T08:15:19.626Z,4.20
2022-10-01T08:17:46.341Z,4.28
2022-10-01T08:20:14.912Z,4.47
2022-10-01T08:22:42.505Z,4.53
2022-10-01T08:25:09.950Z,4.03
2022-10-01T08:27:37.063Z,4.43
2022-10-01T08:30:04.736Z,4.07
2022-10-01T08:32:31.658Z,3.33
2022-10-01T08:34:59.880Z,3.40
2022-10-01T08:37:28.214Z,3.33
2022-10-01T08:39:55.993Z,2.80
2022-10-01T08:42:49.999Z,3.78
2022-10-01T08:45:32.559Z,1.95
2022-10-01T08:48:07.591Z,1.90
2022-10-01T08:50:44.994Z,1.50
2022-10-01T08:53:45.890Z,1.70
2022-10-01T08:56:34.094Z,1.70
2022-10-01T08:59:27.314Z,1.60
2022-10-01T09:01:56.336Z,1.75
2022-10-01T09:04:23.886Z,1.83
2022-10-01T09:06:58.213Z,1.73
2022-10-01T09:09:39.832Z,1.80
2022-10-01T09:12:41.893Z,2.90
2022-10-01T09:16:11.447Z,2.97
2022-10-01T09:18:47.265Z,3.38
2022-10-01T09:21:36.473Z,1.98
2022-10-01T09:24:12.402Z,3.08
2022-10-01T09:26:48.741Z,1.90
2022-10-01T09:29:22.789Z,1.92
2022-10-01T09:31:52.431Z,2.17
2022-10-01T09:34:41.049Z,1.50
2022-10-01T09:37:46.122Z,1.50
2022-10-01T09:40:27.662Z,1.55
2022-10-01T09:42:54.417Z,1.58
2022-10-01T09:45:23.226Z,1.42
2022-10-01T09:47:52.577Z,1.60
2022-10-01T09:50:29.838Z,1.85
2022-10-01T09:53:00.266Z,1.50
2022-10-01T09:55:39.230Z,1.70
2022-10-01T09:58:26.597Z,1.70
2022-10-01T10:00:54.738Z,1.80
2022-10-01T10:03:24.049Z,1.73
2022-10-01T10:05:51.242Z,1.52
2022-10-01T10:08:25.367Z,1.38
2022-10-01T10:11:06.559Z,1.52
2022-10-01T10:13:35.358Z,1.20
2022-10-01T10:16:10.529Z,1.20
2022-10-01T10:18:39.397Z,1.10
2022-10-01T10:21:15.042Z,1.40
2022-10-01T10:23:50.474Z,1.20
2022-10-01T10:26:39.186Z,1.10
2022-10-01T10:29:24.231Z,1.40
2022-10-01T10:31:51.611Z,0.98
2022-10-01T10:34:26.126Z,0.90
2022-10-01T10:36:59.074Z,1.10
2022-10-01T10:39:29.416Z,1.13
2022-10-01T10:41:57.522Z,1.05
2022-10-01T10:44:27.954Z,1.30
2022-10-01T10:47:00.549Z,1.98
2022-10-01T10:49:29.984Z,1.08
2022-10-01T10:51:58.707Z,1.50
2022-10-01T10:54:32.029Z,1.65
2022-10-01T10:57:26.037Z,1.10
2022-10-01T11:00:16.429Z,1.02
2022-10-01T11:02:58.824Z,0.98
2022-10-01T11:05:31.886Z,1.08
2022-10-01T11:08:02.326Z,3.72
2022-10-01T11:10:37.733Z,0.80
2022-10-01T11:13:33.507Z,1.20
2022-10-01T11:16:29.530Z,1.67
2022-10-01T11:19:15.216Z,1.90
2022-10-01T11:21:53.589Z,0.90
2022-10-01T11:24:47.876Z,0.90
2022-10-01T11:27:43.049Z,1.13
2022-10-01T11:30:09.720Z,1.10
2022-10-01T11:32:51.163Z,0.68
2022-10-01T11:35:42.658Z,0.93
2022-10-01T11:38:57.395Z,1.67
2022-10-01T11:44:24.567Z,0.60
2022-10-01T11:47:05.614Z,0.52
2022-10-01T11:49:47.866Z,1.77
2022-10-01T11:52:33.865Z,0.50
2022-10-01T11:55:37.034Z,0.60
2022-10-01T11:58:51.379Z,0.43
2022-10-01T12:01:24.245Z,0.50
2022-10-01T12:03:53.985Z,0.70
2022-10-01T12:06:34.121Z,0.40
2022-10-01T12:09:23.706Z,0.80
2022-10-01T12:12:05.870Z,0.70
2022-10-01T12:15:06.201Z,3.10
2022-10-01T12:17:55.854Z,0.93
2022-10-01T12:20:22.554Z,0.70
2022-10-01T12:22:50.825Z,0.60
2022-10-01T12:25:19.310Z,0.85
2022-10-01T12:28:05.506Z,0.70
2022-10-01T12:30:46.093Z,1.10
2022-10-01T12:33:21.777Z,0.70
2022-10-01T12:36:03.704Z,0.68
2022-10-01T12:39:01.723Z,0.82
2022-10-01T12:41:36.201Z,0.60
2022-10-01T12:44:12.169Z,0.80
2022-10-01T12:46:44.680Z,0.90
2022-10-01T12:49:22.286Z,1.30
2022-10-01T12:52:15.197Z,0.80
2022-10-01T12:54:54.049Z,2.10
2022-10-01T12:57:36.796Z,0.80
2022-10-01T13:00:24.991Z,0.90
2022-10-01T13:03:19.430Z,0.80
2022-10-01T13:06:15.263Z,1.00
2022-10-01T13:08:47.880Z,1.00
2022-10-01T13:11:29.343Z,1.00
2022-10-01T13:13:57.243Z,1.08
2022-10-01T13:16:38.826Z,1.10
2022-10-01T13:19:10.761Z,1.25
2022-10-01T13:21:46.253Z,2.78
2022-10-01T13:24:26.737Z,1.38
2022-10-01T13:27:06.407Z,1.10
2022-10-01T13:29:36.137Z,1.45
2022-10-01T13:32:25.666Z,1.20
2022-10-01T13:34:53.002Z,1.20
2022-10-01T13:37:31.596Z,1.27
2022-10-01T13:39:59.605Z,1.25
2022-10-01T13:42:46.925Z,1.50
2022-10-01T13:45:30.358Z,1.38
2022-10-01T13:48:20.218Z,1.38
2022-10-01T13:51:03.041Z,3.90
2022-10-01T13:53:36.665Z,3.15
2022-10-01T13:58:30.569Z,1.13
2022-10-01T14:01:00.355Z,10.85
2022-10-01T14:03:47.962Z,1.08
2022-10-01T14:06:24.711Z,0.80
2022-10-01T14:09:00.483Z,2.20
2022-10-01T14:11:49.392Z,0.93
2022-10-01T14:14:48.211Z,0.95
2022-10-01T14:17:19.776Z,0.80
2022-10-01T14:19:49.665Z,1.23
2022-10-01T14:22:28.437Z,1.00
2022-10-01T14:25:23.499Z,1.00
2022-10-01T14:28:14.676Z,0.80
2022-10-01T14:30:53.457Z,0.80
2022-10-01T14:33:57.719Z,0.80
2022-10-01T14:36:35.265Z,0.88
2022-10-01T14:39:14.158Z,1.10
2022-10-01T14:41:41.258Z,1.35
2022-10-01T14:44:24.880Z,0.90
2022-10-01T14:46:53.526Z,0.70
2022-10-01T14:49:31.668Z,0.60
2022-10-01T14:52:08.047Z,0.70
2022-10-01T14:54:48.222Z,0.75
2022-10-01T14:57:42.434Z,0.73
2022-10-01T15:02:49.582Z,0.68
2022-10-01T15:05:32.300Z,0.45
2022-10-01T15:08:09.921Z,0.60
2022-10-01T15:10:36.790Z,0.90
2022-10-01T15:13:05.646Z,0.80
2022-10-01T15:15:40.594Z,0.70
2022-10-01T15:18:08.130Z,0.80
2022-10-01T15:20:35.137Z,0.70
2022-10-01T15:23:05.570Z,0.70
2022-10-01T15:25:32.544Z,0.70
2022-10-01T15:27:59.340Z,0.70
2022-10-01T15:30:27.745Z,0.57
2022-10-01T15:32:55.366Z,0.85
2022-10-01T15:35:23.878Z,0.88
2022-10-01T15:37:51.821Z,0.63
2022-10-01T15:40:30.433Z,0.55
2022-10-01T15:43:20.848Z,0.68
2022-10-01T15:46:07.455Z,0.70
2022-10-01T15:48:34.135Z,0.80
2022-10-01T15:51:05.422Z,0.60
2022-10-01T15:53:33.781Z,0.70
2022-10-01T15:56:12.120Z,0.57
2022-10-01T15:58:54.219Z,0.70
2022-10-01T16:01:27.604Z,0.65
2022-10-01T16:04:00.822Z,0.80
2022-10-01T16:06:48.981Z,0.82
2022-10-01T16:09:23.316Z,0.65
2022-10-01T16:12:10.215Z,0.77
2022-10-01T16:14:42.195Z,0.80
2022-10-01T16:17:18.036Z,0.90
2022-10-01T16:19:48.433Z,1.10
2022-10-01T16:22:19.209Z,0.85
2022-10-01T16:24:51.585Z,0.75
2022-10-01T16:27:26.890Z,0.88
2022-10-01T16:30:05.406Z,1.02
2022-10-01T16:32:33.493Z,1.10
2022-10-01T16:35:18.863Z,1.50
2022-10-01T16:37:48.214Z,1.05
2022-10-01T16:40:16.392Z,2.38
2022-10-01T16:42:45.597Z,1.85
2022-10-01T16:45:18.070Z,1.88
2022-10-01T16:47:46.151Z,0.75
2022-10-01T16:50:16.413Z,0.75
2022-10-01T16:52:43.521Z,0.80
2022-10-01T16:55:39.799Z,1.27
2022-10-01T16:58:06.955Z,1.88
2022-10-01T17:00:35.186Z,0.70
2022-10-01T17:03:01.906Z,1.25
2022-10-01T17:05:34.160Z,0.60
2022-10-01T17:08:01.397Z,0.60
2022-10-01T17:10:31.595Z,0.70
2022-10-01T17:12:59.666Z,1.75
2022-10-01T17:15:28.220Z,0.77
2022-10-01T17:17:56.790Z,1.55
2022-10-01T17:20:25.608Z,0.57
2022-10-01T17:22:52.498Z,0.77
2022-10-01T17:25:24.545Z,0.73
2022-10-01T17:27:51.756Z,0.73
2022-10-01T17:30:18.886Z,0.70
2022-10-01T17:32:46.560Z,1.15
2022-10-01T17:35:15.355Z,1.02
2022-10-01T17:37:42.549Z,0.60
2022-10-01T17:40:10.463Z,0.70
2022-10-01T17:42:37.189Z,1.58
2022-10-01T17:45:06.639Z,6.53
2022-10-01T17:47:33.812Z,1.73
2022-10-01T17:50:00.791Z,1.38
2022-10-01T17:52:27.485Z,0.90
2022-10-01T17:54:54.180Z,0.90
2022-10-01T17:57:20.970Z,1.40
2022-10-01T17:59:47.645Z,0.60
2022-10-01T18:02:40.026Z,1.55
2022-10-01T18:05:03.420Z,0.77
2022-10-01T18:07:30.139Z,1.00
2022-10-01T18:09:56.843Z,1.13
2022-10-01T18:12:24.261Z,0.80
2022-10-01T18:14:51.088Z,1.50
2022-10-01T18:17:18.117Z,1.00
2022-10-01T18:19:53.597Z,0.90
2022-10-01T18:22:20.817Z,1.17
2022-10-01T18:24:47.954Z,1.30
2022-10-01T18:27:14.946Z,1.08
2022-10-01T18:29:41.686Z,1.17
2022-10-01T18:32:40.678Z,1.30
2022-10-01T18:35:25.405Z,1.30
2022-10-01T18:37:59.471Z,1.17
2022-10-01T18:40:35.680Z,1.30
2022-10-01T18:43:21.912Z,1.20
2022-10-01T18:46:12.956Z,1.70
2022-10-01T18:49:25.809Z,1.67
2022-10-01T18:51:58.621Z,2.35
2022-10-01T18:54:49.623Z,1.60
2022-10-01T18:57:34.807Z,3.00
2022-10-01T19:00:17.979Z,2.45
2022-10-01T19:03:06.464Z,1.92
2022-10-01T19:05:46.477Z,2.70
2022-10-01T19:08:39.202Z,2.35
2022-10-01T19:11:41.148Z,2.17
2022-10-01T19:14:16.850Z,2.50
2022-10-01T19:17:14.404Z,3.38
2022-10-01T19:20:03.100Z,2.75
2022-10-01T19:22:41.925Z,2.78
2022-10-01T19:25:29.583Z,3.05
2022-10-01T19:28:22.579Z,3.22
2022-10-01T19:30:59.548Z,3.17
2022-10-01T19:33:26.692Z,2.47
2022-10-01T19:35:57.864Z,2.65
2022-10-01T19:38:35.260Z,2.38
2022-10-01T19:41:05.717Z,2.30
2022-10-01T19:44:24.208Z,2.05
2022-10-01T19:46:52.541Z,1.80
2022-10-01T19:49:27.530Z,1.70
2022-10-01T19:52:12.210Z,2.00
2022-10-01T19:54:51.614Z,1.80
2022-10-01T19:57:27.199Z,1.83
2022-10-01T19:59:59.917Z,1.95
2022-10-01T20:02:40.222Z,1.70
2022-10-01T20:05:13.679Z,2.13
2022-10-01T20:08:01.326Z,0.85
2022-10-01T20:10:43.689Z,0.88
2022-10-01T20:13:23.156Z,0.73
2022-10-01T20:16:05.181Z,0.50
2022-10-01T20:19:27.488Z,1.38
2022-10-01T20:22:30.327Z,0.80
2022-10-01T20:25:36.421Z,1.00
2022-10-01T20:28:32.158Z,0.98
2022-10-01T20:31:33.054Z,0.95
2022-10-01T20:34:33.792Z,1.23
2022-10-01T20:37:14.938Z,1.30
2022-10-01T20:40:02.682Z,1.23
2022-10-01T20:42:39.415Z,1.00
2022-10-01T20:45:16.543Z,2.15
2022-10-01T20:48:01.415Z,1.25
2022-10-01T20:50:50.368Z,1.00
2022-10-01T20:53:44.959Z,1.00
2022-10-01T20:56:38.344Z,1.30
2022-10-01T20:59:07.439Z,1.38
2022-10-01T21:01:39.230Z,1.60
2022-10-01T21:04:23.394Z,1.77
2022-10-01T21:07:01.170Z,2.08
2022-10-01T21:09:33.125Z,1.80
2022-10-01T21:12:15.377Z,2.05
2022-10-01T21:14:55.142Z,2.00
2022-10-01T21:17:41.495Z,2.08
2022-10-01T21:20:16.966Z,10.73
2022-10-01T21:23:15.933Z,3.63
2022-10-01T21:26:10.516Z,13.90
2022-10-01T21:28:49.207Z,10.70
2022-10-01T21:31:29.656Z,7.75
2022-10-01T21:34:26.274Z,3.00
2022-10-01T21:37:09.991Z,2.30
2022-10-01T21:39:56.948Z,2.83
2022-10-01T21:42:53.859Z,3.35
2022-10-01T21:45:48.282Z,2.00
2022-10-01T21:48:22.928Z,1.52
2022-10-01T21:51:12.392Z,1.50
2022-10-01T21:54:04.969Z,1.60
2022-10-01T21:57:07.347Z,1.65
2022-10-01T22:00:02.678Z,1.83
2022-10-01T22:02:50.567Z,1.73
2022-10-01T22:05:28.164Z,2.03
2022-10-01T22:08:18.220Z,2.42
2022-10-01T22:10:50.147Z,2.08
2022-10-01T22:13:25.041Z,2.85
2022-10-01T22:15:55.942Z,2.38
2022-10-01T22:18:44.130Z,2.42
2022-10-01T22:21:26.335Z,3.00
2022-10-01T22:24:03.831Z,2.80
2022-10-01T22:26:34.215Z,2.85
2022-10-01T22:29:02.924Z,2.90
2022-10-01T22:31:35.089Z,2.70
2022-10-01T22:34:12.351Z,3.10
2022-10-01T22:36:50.278Z,3.28
2022-10-01T22:39:19.732Z,2.75
2022-10-01T22:42:00.405Z,2.67
2022-10-01T22:44:28.592Z,2.88
2022-10-01T22:46:58.472Z,3.28
2022-10-01T22:49:25.181Z,3.05
2022-10-01T22:52:41.417Z,2.90
2022-10-01T22:55:43.203Z,2.60
2022-10-01T22:58:12.936Z,2.35
2022-10-01T23:00:48.164Z,2.85
2022-10-01T23:03:17.892Z,2.97
2022-10-01T23:05:47.736Z,2.85
2022-10-01T23:08:39.370Z,3.08
2022-10-01T23:11:34.781Z,3.00
2022-10-01T23:14:12.403Z,2.72
2022-10-01T23:16:44.252Z,2.60
2022-10-01T23:19:20.879Z,2.20
2022-10-01T23:22:01.264Z,2.20
2022-10-01T23:24:38.222Z,1.67
2022-10-01T23:27:25.228Z,1.20
